Time;durP1;ratioP1;P1;durP2;ratioP2;P2;SDS_P1;SDS_P2;PMS_P1;PMS_P2;Temp;Humidity;BMP_temperature;BMP_pressure;BME280_temperature;BME280_humidity;BME280_pressure;Samples;Min_cycle;Max_cycle;Signal;HPM_P1;HPM_P2
2021/12/05 00:20:45;;;;;;;11.43;2.78;;;;;;;4.34;91.50;99762.06;5043313;28;20028;-78
2021/12/05 00:23:16;;;;;;;11.55;2.97;;;;;;;4.32;91.59;99756.06;5029786;28;20354;-78
2021/12/05 00:25:46;;;;;;;10.20;2.72;;;;;;;4.32;91.99;99763.84;5041671;28;20021;-78
2021/12/05 00:28:42;;;;;;;20.15;2.80;;;;;;;4.33;92.13;99762.09;5026030;28;20029;-78
2021/12/05 00:31:19;;;;;;;9.00;2.83;;;;;;;4.31;92.20;99759.59;5044162;28;20041;-78
2021/12/05 00:34:02;;;;;;;5.32;2.20;;;;;;;4.31;92.26;99759.59;5022350;28;20045;-79
2021/12/05 01:00:45;;;;;;;13.45;3.15;;;;;;;4.35;93.37;99750.81;5037632;28;20048;-78
2021/12/05 01:12:09;;;;;;;8.77;2.80;;;;;;;4.29;93.46;99744.97;4977160;28;20062;-78
2021/12/05 01:14:53;;;;;;;10.73;2.35;;;;;;;4.27;93.41;99751.94;4966763;28;20085;-78
2021/12/05 01:17:22;;;;;;;8.70;2.50;;;;;;;4.28;93.42;99748.47;5024469;28;20037;-78
2021/12/05 01:19:48;;;;;;;11.27;2.55;;;;;;;4.28;93.43;99751.06;5020523;28;20029;-78
2021/12/05 01:22:17;;;;;;;8.43;2.25;;;;;;;4.28;93.52;99744.13;5020354;28;20060;-78
2021/12/05 01:24:54;;;;;;;9.52;2.92;;;;;;;4.29;93.65;99739.78;5020454;28;20122;-78
2021/12/05 01:27:48;;;;;;;12.18;2.65;;;;;;;4.30;93.77;99739.72;5040421;28;20032;-78
2021/12/05 01:30:29;;;;;;;13.13;2.80;;;;;;;4.30;93.65;99741.50;5036967;28;20592;-78
2021/12/05 01:33:05;;;;;;;10.23;2.45;;;;;;;4.29;93.55;99732.84;5020879;28;20049;-78
2021/12/05 01:35:51;;;;;;;14.38;2.97;;;;;;;4.29;93.30;99732.00;5021569;28;20489;-78
2021/12/05 01:44:17;;;;;;;12.80;3.35;;;;;;;4.23;93.12;99738.22;5016361;28;20034;-78
2021/12/05 02:15:38;;;;;;;6.65;2.15;;;;;;;4.15;93.67;99735.91;5039755;28;20498;-79
2021/12/05 02:34:39;;;;;;;13.85;3.05;;;;;;;4.09;94.15;99737.81;5040350;28;20353;-79
2021/12/05 02:42:36;;;;;;;10.60;3.10;;;;;;;4.04;94.26;99741.41;5040030;28;20034;-79
2021/12/05 02:45:04;;;;;;;12.63;3.83;;;;;;;4.02;94.33;99740.63;5040299;28;20033;-79
2021/12/05 02:47:30;;;;;;;9.45;3.03;;;;;;;4.01;94.34;99744.09;5023455;28;20033;-79
2021/12/05 02:49:57;;;;;;;8.85;3.13;;;;;;;3.98;94.16;99732.97;5039806;28;20045;-79
2021/12/05 02:52:30;;;;;;;14.00;3.97;;;;;;;3.97;94.07;99733.88;5039371;28;20067;-79
2021/12/05 02:54:59;;;;;;;4.53;2.97;;;;;;;3.96;94.03;99735.59;5039766;28;20336;-79
2021/12/05 02:57:48;;;;;;;10.20;3.80;;;;;;;3.98;94.14;99736.44;5039026;28;20021;-79
2021/12/05 03:00:22;;;;;;;11.57;3.83;;;;;;;3.98;94.47;99723.47;5026718;28;20224;-79
2021/12/05 03:02:51;;;;;;;9.52;3.90;;;;;;;3.98;94.27;99727.78;5007893;28;20060;-79
2021/12/05 03:05:20;;;;;;;8.32;4.20;;;;;;;4.00;94.32;99736.34;5040494;28;20284;-79
2021/12/05 03:07:48;;;;;;;12.70;3.90;;;;;;;3.99;94.38;99740.69;5023339;28;20229;-79
2021/12/05 03:10:15;;;;;;;13.95;3.63;;;;;;;4.00;94.41;99733.78;5022940;28;20033;-78
2021/12/05 03:12:40;;;;;;;7.53;2.78;;;;;;;3.97;94.35;99728.72;5038447;28;20056;-78
2021/12/05 03:15:09;;;;;;;15.85;2.38;;;;;;;3.95;94.20;99736.53;5022400;28;20029;-78
2021/12/05 03:17:34;;;;;;;6.20;2.33;;;;;;;3.90;94.09;99738.41;5038574;28;20367;-78
2021/12/05 03:20:00;;;;;;;6.57;2.30;;;;;;;3.88;94.02;99742.78;5022118;28;20025;-78
2021/12/05 03:22:25;;;;;;;5.45;1.63;;;;;;;3.84;94.08;99744.63;5038852;28;20302;-78
2021/12/05 03:24:51;;;;;;;2.00;1.80;;;;;;;3.84;93.89;99741.19;5039617;28;20339;-78
2021/12/05 03:27:16;;;;;;;2.47;1.65;;;;;;;3.83;93.86;99736.88;5039942;28;20041;-78
2021/12/05 03:29:42;;;;;;;3.00;1.63;;;;;;;3.84;94.04;99741.19;5021976;28;20037;-79
2021/12/05 03:32:07;;;;;;;4.82;1.52;;;;;;;3.83;93.98;99742.06;5041295;28;20249;-79
2021/12/05 03:34:33;;;;;;;3.80;2.10;;;;;;;3.84;94.07;99741.19;5008859;28;20293;-79
2021/12/05 03:36:59;;;;;;;3.65;1.98;;;;;;;3.85;94.38;99742.88;5042712;28;20041;-79
2021/12/05 03:39:24;;;;;;;4.05;2.40;;;;;;;3.85;94.07;99735.09;5025009;28;20032;-79
2021/12/05 03:41:52;;;;;;;3.40;2.03;;;;;;;3.86;93.98;99739.41;5042252;28;20052;-79
2021/12/05 03:44:18;;;;;;;4.65;2.72;;;;;;;3.88;94.22;99745.38;5026125;28;20032;-79
2021/12/05 03:46:44;;;;;;;3.28;2.67;;;;;;;3.90;94.31;99734.97;5042271;28;20052;-79
2021/12/05 03:49:10;;;;;;;5.15;2.90;;;;;;;3.91;94.51;99742.69;5041895;28;20033;-79
2021/12/05 03:51:38;;;;;;;6.90;2.80;;;;;;;3.92;94.39;99744.38;5041863;28;20357;-79
2021/12/05 03:54:05;;;;;;;4.20;2.95;;;;;;;3.91;94.35;99745.28;5041781;28;20037;-79
2021/12/05 03:56:31;;;;;;;8.20;3.92;;;;;;;3.91;94.33;99753.06;5042217;28;20103;-79
2021/12/05 03:58:56;;;;;;;5.57;3.80;;;;;;;3.87;94.37;99759.22;5041601;28;20025;-79
2021/12/05 04:01:24;;;;;;;8.20;4.10;;;;;;;3.87;94.11;99763.53;5041454;28;20416;-79
2021/12/05 04:03:50;;;;;;;6.13;4.53;;;;;;;3.85;94.23;99761.00;5042077;28;20056;-79
2021/12/05 04:06:16;;;;;;;4.57;3.80;;;;;;;3.85;94.15;99761.00;5025180;28;20112;-79
2021/12/05 04:08:42;;;;;;;4.78;4.25;;;;;;;3.83;94.18;99757.59;5036011;28;20332;-79
2021/12/05 04:11:21;;;;;;;4.18;3.88;;;;;;;3.84;94.37;99760.16;5041821;28;20052;-79
2021/12/05 04:13:47;;;;;;;7.50;3.92;;;;;;;3.85;94.27;99768.78;5026777;28;20337;-79
2021/12/05 04:16:13;;;;;;;7.50;4.70;;;;;;;3.83;94.46;99760.19;5021861;28;20055;-79
2021/12/05 04:18:39;;;;;;;4.85;4.20;;;;;;;3.82;94.33;99764.53;5011908;28;20029;-79
2021/12/05 04:21:05;;;;;;;6.60;4.53;;;;;;;3.82;94.40;99763.66;5041228;28;20025;-79
2021/12/05 04:23:30;;;;;;;5.10;4.57;;;;;;;3.82;94.38;99767.13;5040740;28;20043;-79
2021/12/05 04:25:56;;;;;;;6.20;4.28;;;;;;;3.84;94.44;99769.69;5059264;28;20214;-79
2021/12/05 04:28:21;;;;;;;4.85;4.35;;;;;;;3.85;94.55;99774.78;5040793;28;20041;-79
2021/12/05 04:30:47;;;;;;;5.45;4.32;;;;;;;3.87;94.64;99772.16;5041274;28;20051;-79
2021/12/05 04:33:12;;;;;;;6.55;4.10;;;;;;;3.85;94.55;99771.34;5058612;28;20048;-79
2021/12/05 04:35:38;;;;;;;4.60;4.03;;;;;;;3.84;94.39;99780.03;5040997;28;20356;-79
2021/12/05 04:38:03;;;;;;;5.35;4.25;;;;;;;3.84;94.26;99780.03;5023692;28;20078;-79
2021/12/05 04:40:29;;;;;;;4.88;4.22;;;;;;;3.84;94.32;99778.28;5024185;28;20028;-79
2021/12/05 04:42:54;;;;;;;8.82;4.50;;;;;;;3.83;94.35;99775.75;5041335;28;20051;-79
2021/12/05 04:45:22;;;;;;;9.27;4.75;;;;;;;3.81;94.26;99780.97;5055355;28;20059;-79
2021/12/05 04:47:48;;;;;;;5.05;4.20;;;;;;;3.82;94.31;99780.09;5024650;28;20303;-79
2021/12/05 04:50:14;;;;;;;4.43;3.97;;;;;;;3.85;94.50;99777.38;5040931;28;20037;-79
2021/12/05 04:52:39;;;;;;;7.60;4.30;;;;;;;3.87;94.51;99781.69;5040605;28;20082;-79
2021/12/05 04:55:05;;;;;;;12.25;5.13;;;;;;;3.88;94.73;99786.81;5023939;28;20045;-79
2021/12/05 04:57:31;;;;;;;5.20;4.65;;;;;;;3.89;94.89;99790.25;5023980;28;20033;-79
2021/12/05 04:59:56;;;;;;;4.70;4.30;;;;;;;3.90;94.73;99784.19;5040188;28;20020;-79
2021/12/05 05:02:22;;;;;;;4.68;3.80;;;;;;;3.89;94.66;99783.31;5023913;28;20045;-79
2021/12/05 05:04:49;;;;;;;5.10;3.65;;;;;;;3.88;94.67;99792.00;5040652;28;20045;-79
2021/12/05 05:07:23;;;;;;;4.97;3.90;;;;;;;3.88;94.54;99796.34;5057996;28;20043;-79
2021/12/05 05:09:50;;;;;;;4.30;3.75;;;;;;;3.89;94.90;99803.19;5025545;28;20036;-79
2021/12/05 05:12:15;;;;;;;4.10;3.67;;;;;;;3.90;94.55;99797.13;5024112;28;20251;-79
2021/12/05 05:14:41;;;;;;;5.97;3.90;;;;;;;3.90;94.56;99803.16;5040032;28;20036;-79
2021/12/05 05:17:06;;;;;;;4.25;3.85;;;;;;;3.91;94.61;99804.00;5039627;28;20045;-79
2021/12/05 05:19:39;;;;;;;6.82;4.05;;;;;;;3.91;94.52;99811.78;5039996;28;20025;-79
2021/12/05 05:50:37;;;;;;;4.17;3.83;;;;;;;3.89;94.58;99819.59;5024253;28;20037;-79
2021/12/05 05:53:02;;;;;;;4.57;4.10;;;;;;;3.91;94.49;99829.91;5023778;28;20047;-79
2021/12/05 05:55:28;;;;;;;4.03;3.60;;;;;;;3.90;94.63;99830.81;5039883;28;20037;-79
2021/12/05 06:00:32;;;;;;;4.00;3.70;;;;;;;3.88;94.30;99837.78;5057298;28;20036;-79
2021/12/05 06:05:42;;;;;;;5.10;3.35;;;;;;;3.84;94.29;99848.22;5057574;28;20008;-79
2021/12/05 06:08:07;;;;;;;3.55;3.33;;;;;;;3.80;93.72;99846.63;5022651;28;20324;-79
2021/12/05 06:10:33;;;;;;;3.92;3.58;;;;;;;3.80;93.86;99845.75;4999662;28;20040;-79
2021/12/05 06:12:59;;;;;;;4.07;3.67;;;;;;;3.78;93.75;99858.78;5020161;28;20241;-79
2021/12/05 06:15:26;;;;;;;4.93;3.40;;;;;;;3.77;93.96;99861.41;5007996;28;20264;-79
2021/12/05 06:17:52;;;;;;;6.90;3.55;;;;;;;3.77;94.06;99858.81;5004531;28;20025;-79
2021/12/05 06:20:19;;;;;;;5.68;4.10;;;;;;;3.79;94.06;99862.19;5026229;28;20055;-79
2021/12/05 06:22:45;;;;;;;4.30;3.88;;;;;;;3.78;94.13;99861.38;5056581;28;20033;-79
2021/12/05 06:25:19;;;;;;;4.32;3.92;;;;;;;3.76;94.17;99867.47;5023241;28;20049;-79
2021/12/05 06:27:45;;;;;;;4.32;3.92;;;;;;;3.76;94.09;99872.63;5024740;28;20096;-79
2021/12/05 06:30:19;;;;;;;3.90;3.60;;;;;;;3.75;94.20;99864.03;5023053;28;20037;-79
2021/12/05 06:46:08;;;;;;;6.22;4.28;;;;;;;3.78;94.34;99894.16;5041508;28;20068;-80
2021/12/05 06:48:33;;;;;;;11.98;4.40;;;;;;;3.77;94.42;99898.50;5024026;28;20102;-80
2021/12/05 06:50:59;;;;;;;4.70;4.10;;;;;;;3.78;94.41;99897.63;5022131;28;20029;-80
2021/12/05 06:53:24;;;;;;;6.55;4.03;;;;;;;3.77;94.49;99893.31;5038741;28;20033;-79
2021/12/05 06:55:50;;;;;;;5.72;4.18;;;;;;;3.79;94.41;99899.31;5022632;28;20048;-79
2021/12/05 06:58:15;;;;;;;4.13;3.72;;;;;;;3.79;94.48;99903.63;5039040;28;20049;-79
2021/12/05 07:00:41;;;;;;;5.40;3.35;;;;;;;3.79;94.57;99909.66;5056959;28;20025;-79
2021/12/05 07:03:08;;;;;;;4.00;3.63;;;;;;;3.78;94.44;99910.56;5042645;28;20096;-79
2021/12/05 07:05:53;;;;;;;4.97;3.70;;;;;;;3.77;94.46;99916.63;5057701;28;20291;-79
2021/12/05 07:08:24;;;;;;;3.60;3.30;;;;;;;3.80;94.54;99920.88;5012965;28;20441;-79
2021/12/05 07:10:56;;;;;;;7.65;3.85;;;;;;;3.79;94.54;99920.03;5042765;28;20039;-80
2021/12/05 07:15:54;;;;;;;3.92;2.88;;;;;;;3.82;94.37;99927.72;5043716;28;20036;-80
2021/12/05 07:21:28;;;;;;;3.42;3.22;;;;;;;3.82;94.61;99929.44;5059345;28;20040;-80
2021/12/05 07:23:59;;;;;;;3.60;2.92;;;;;;;3.81;94.49;99935.53;5024426;28;20352;-80
2021/12/05 07:42:45;;;;;;;4.82;4.10;;;;;;;3.74;94.23;99960.72;5041804;28;20099;-80
2021/12/05 07:45:14;;;;;;;4.47;4.07;;;;;;;3.74;94.25;99972.84;5039757;28;20345;-80
2021/12/05 07:47:44;;;;;;;6.80;3.63;;;;;;;3.72;94.19;99975.47;5021821;28;20416;-80
2021/12/05 07:50:11;;;;;;;7.57;3.85;;;;;;;3.72;94.18;99982.38;5006411;28;20036;-80
2021/12/05 07:52:40;;;;;;;4.97;4.28;;;;;;;3.72;94.29;99984.97;5021484;28;20032;-80
2021/12/05 07:55:16;;;;;;;4.47;4.03;;;;;;;3.71;94.23;99984.13;5006805;28;20098;-79
2021/12/05 07:58:07;;;;;;;6.43;4.15;;;;;;;3.71;94.17;99989.31;5046192;28;20135;-79
2021/12/05 08:00:45;;;;;;;4.32;3.92;;;;;;;3.70;94.08;99987.59;5027797;28;20105;-79
2021/12/05 08:16:52;;;;;;;9.02;4.90;;;;;;;3.70;94.24;100010.91;5055932;28;20052;-80
2021/12/05 08:19:20;;;;;;;7.75;4.95;;;;;;;3.69;94.20;100010.94;5052699;28;20025;-80
2021/12/05 08:21:50;;;;;;;5.03;4.63;;;;;;;3.68;94.13;100009.25;5021731;28;20489;-80
2021/12/05 08:24:15;;;;;;;6.90;5.60;;;;;;;3.68;94.24;100022.22;5006695;28;20040;-80
2021/12/05 08:26:42;;;;;;;5.63;5.13;;;;;;;3.68;94.08;100012.69;5038584;28;20357;-80
2021/12/05 08:29:15;;;;;;;6.88;5.80;;;;;;;3.67;94.19;100015.31;5019624;28;20228;-80
2021/12/05 08:42:50;;;;;;;5.70;5.07;;;;;;;3.68;94.06;100035.16;5037354;28;20044;-80
2021/12/05 09:29:04;;;;;;;7.10;5.05;;;;;;;3.98;94.78;100108.63;5039995;28;20055;-80
2021/12/05 09:51:01;;;;;;;8.02;5.30;;;;;;;4.04;94.98;100124.88;5040144;28;20247;-79
2021/12/05 10:06:54;;;;;;;7.20;3.67;;;;;;;4.12;95.13;100149.75;5026301;28;20053;-80
2021/12/05 10:36:18;;;;;;;4.15;3.00;;;;;;;4.30;95.50;100180.41;4998755;28;20077;-80
2021/12/05 10:38:52;;;;;;;3.95;3.38;;;;;;;4.30;95.51;100187.31;5011887;28;20048;-80
2021/12/05 10:43:52;;;;;;;4.95;3.63;;;;;;;4.32;95.41;100186.38;4982103;28;20044;-80
2021/12/05 10:46:18;;;;;;;3.63;3.22;;;;;;;4.37;95.72;100191.47;4983613;28;20046;-80
2021/12/05 10:48:48;;;;;;;3.10;2.72;;;;;;;4.40;95.85;100192.25;4983372;28;20362;-80
2021/12/05 10:51:14;;;;;;;3.67;3.38;;;;;;;4.43;96.09;100192.16;4998848;28;20077;-80
2021/12/05 10:53:43;;;;;;;3.47;3.13;;;;;;;4.47;96.00;100197.25;4997711;28;20207;-80
2021/12/05 10:56:11;;;;;;;;;;;;;;;4.51;96.18;100198.88;5015505;28;20407;-80
2021/12/05 10:58:53;;;;;;;5.05;3.03;;;;;;;4.52;96.25;100201.44;4998570;28;19952;-80
2021/12/05 11:01:41;;;;;;;3.65;3.35;;;;;;;4.55;96.34;100205.72;5033708;28;20044;-80
2021/12/05 11:04:20;;;;;;;3.78;3.15;;;;;;;4.54;96.33;100214.38;5039862;28;20040;-80
2021/12/05 11:06:50;;;;;;;3.92;3.22;;;;;;;4.54;96.24;100214.38;5022725;28;20033;-80
2021/12/05 11:09:18;;;;;;;3.25;2.92;;;;;;;4.55;96.22;100211.75;5038464;28;20045;-80
2021/12/05 11:11:45;;;;;;;5.85;3.80;;;;;;;4.57;96.34;100216.88;5023592;28;20044;-80
2021/12/05 11:14:14;;;;;;;3.45;3.03;;;;;;;4.58;96.37;100210.78;5020568;28;20029;-80
2021/12/05 11:16:52;;;;;;;6.23;3.03;;;;;;;4.59;96.26;100212.50;5037282;28;20351;-80
2021/12/05 11:19:25;;;;;;;4.65;3.25;;;;;;;4.60;96.24;100212.47;5032453;28;20475;-80
2021/12/05 11:22:05;;;;;;;3.00;2.70;;;;;;;4.63;96.46;100218.47;5037191;28;20040;-80
2021/12/05 11:24:43;;;;;;;4.57;3.42;;;;;;;4.65;96.40;100211.50;5040685;28;20052;-80
2021/12/05 11:27:23;;;;;;;3.28;2.97;;;;;;;4.67;96.31;100220.94;5031626;28;20041;-80
2021/12/05 11:29:52;;;;;;;2.70;2.50;;;;;;;4.68;96.68;100222.66;5023779;28;20052;-80
2021/12/05 11:32:32;;;;;;;3.90;3.60;;;;;;;4.72;96.59;100215.63;5024704;28;20036;-80
2021/12/05 11:34:57;;;;;;;3.65;3.35;;;;;;;4.75;96.59;100219.00;5009198;28;20033;-80
2021/12/05 11:37:23;;;;;;;3.63;3.33;;;;;;;4.80;96.58;100216.25;5017995;28;20039;-80
2021/12/05 11:39:49;;;;;;;3.97;3.35;;;;;;;4.83;96.66;100215.34;5005010;28;20037;-80
2021/12/05 11:42:20;;;;;;;4.50;3.55;;;;;;;4.87;96.73;100217.81;5020780;28;20061;-80
2021/12/05 11:44:46;;;;;;;4.38;3.65;;;;;;;4.90;96.57;100227.25;5005286;28;20064;-80
2021/12/05 11:47:13;;;;;;;5.88;4.03;;;;;;;4.96;96.90;100227.94;5021083;28;20037;-79
2021/12/05 11:49:39;;;;;;;5.30;3.58;;;;;;;5.00;96.95;100228.69;5020989;28;20128;-80
2021/12/05 11:52:04;;;;;;;4.30;3.90;;;;;;;5.03;97.00;100228.63;5038404;28;20033;-80
2021/12/05 11:54:51;;;;;;;4.78;4.25;;;;;;;5.08;97.03;100233.69;5019655;28;20310;-80
2021/12/05 11:57:22;;;;;;;4.65;4.25;;;;;;;5.10;97.01;100234.50;5038198;28;20036;-80
2021/12/05 11:59:50;;;;;;;6.15;4.13;;;;;;;5.11;97.02;100246.56;5039693;28;20389;-80
2021/12/05 12:02:17;;;;;;;4.72;4.22;;;;;;;5.11;96.81;100246.56;5038223;28;20039;-80
2021/12/05 12:04:51;;;;;;;5.15;4.57;;;;;;;5.11;96.71;100249.16;5056316;28;20044;-80
2021/12/05 12:07:18;;;;;;;8.38;5.10;;;;;;;5.11;96.70;100250.03;5038464;28;20054;-80
2021/12/05 12:09:44;;;;;;;6.30;4.65;;;;;;;5.11;96.64;100255.25;5038676;28;20025;-80
2021/12/05 12:12:10;;;;;;;10.38;4.70;;;;;;;5.13;96.59;100260.34;5037861;28;20209;-80
2021/12/05 12:14:36;;;;;;;8.68;4.60;;;;;;;5.12;96.61;100262.09;5019093;28;20033;-80
2021/12/05 12:17:04;;;;;;;4.97;4.57;;;;;;;5.13;96.69;100261.22;5037690;28;20045;-80
2021/12/05 12:19:29;;;;;;;5.85;5.28;;;;;;;5.14;96.60;100260.31;5037132;28;20426;-80
2021/12/05 12:21:58;;;;;;;5.78;5.00;;;;;;;5.13;96.77;100265.56;5020201;28;20058;-80
2021/12/05 12:24:24;;;;;;;6.05;5.40;;;;;;;5.13;96.55;100276.81;5037868;28;20044;-80
2021/12/05 12:26:49;;;;;;;5.43;5.05;;;;;;;5.14;96.57;100275.91;5037559;28;20151;-80
2021/12/05 12:29:15;;;;;;;5.47;4.97;;;;;;;5.14;96.65;100282.84;5035024;28;20073;-80
2021/12/05 12:31:42;;;;;;;7.93;5.18;;;;;;;5.15;96.50;100284.56;4996572;28;20037;-80
2021/12/05 12:34:10;;;;;;;6.78;5.63;;;;;;;5.15;96.29;100287.16;5037600;28;20076;-80
2021/12/05 12:36:49;;;;;;;7.57;5.47;;;;;;;5.16;96.34;100288.84;5020824;28;20127;-79
2021/12/05 12:39:21;;;;;;;6.20;5.45;;;;;;;5.16;96.33;100288.84;5017338;28;20284;-79
2021/12/05 12:42:20;;;;;;;5.63;5.22;;;;;;;5.16;96.33;100291.44;5054532;28;20040;-79
2021/12/05 12:45:14;;;;;;;6.65;6.05;;;;;;;5.14;96.32;100303.59;5033798;28;20029;-79
2021/12/05 12:47:42;;;;;;;8.60;7.45;;;;;;;5.14;96.07;100307.03;5051545;28;20356;-79
2021/12/05 12:50:34;;;;;;;8.75;7.82;;;;;;;5.13;96.21;100310.56;5018972;28;20060;-80
2021/12/05 12:53:04;;;;;;;9.73;7.88;;;;;;;5.12;96.10;100308.00;5020082;28;20032;-80
2021/12/05 12:55:31;;;;;;;7.95;7.25;;;;;;;5.13;96.12;100312.28;5052809;28;20024;-79
2021/12/05 12:57:57;;;;;;;10.23;8.23;;;;;;;5.13;96.08;100313.16;5036561;28;20051;-80
2021/12/05 13:00:25;;;;;;;13.13;9.45;;;;;;;5.13;96.16;100313.16;5036642;28;20032;-79
2021/12/05 13:02:56;;;;;;;11.25;8.15;;;;;;;5.13;96.01;100314.88;5037261;28;20336;-79
2021/12/05 13:11:06;;;;;;;13.55;9.27;;;;;;;5.10;95.78;100328.78;5037723;28;20075;-79
2021/12/05 13:13:32;;;;;;;16.80;9.23;;;;;;;5.10;95.43;100328.78;5038434;28;20611;-79
2021/12/05 13:16:16;;;;;;;22.48;9.98;;;;;;;5.11;95.57;100337.44;5020611;28;20037;-79
2021/12/05 13:18:42;;;;;;;12.95;9.55;;;;;;;5.10;95.52;100336.59;5029196;28;20416;-80
2021/12/05 13:21:30;;;;;;;17.88;10.35;;;;;;;5.09;95.40;100340.06;5000733;28;20041;-80
2021/12/05 13:23:56;;;;;;;18.93;10.40;;;;;;;5.10;95.39;100352.16;5034056;28;20025;-80
2021/12/05 13:26:29;;;;;;;18.00;9.90;;;;;;;5.11;95.36;100351.28;5051792;28;20103;-80
2021/12/05 13:29:14;;;;;;;21.23;11.10;;;;;;;5.10;95.23;100344.38;5055097;28;20290;-79
2021/12/05 13:31:41;;;;;;;20.17;11.25;;;;;;;5.08;95.22;100351.34;5054250;28;20040;-79
2021/12/05 13:34:29;;;;;;;19.02;10.82;;;;;;;5.06;95.01;100358.31;5020454;28;20206;-79
2021/12/05 13:36:58;;;;;;;24.10;11.70;;;;;;;5.06;94.95;100358.31;5037899;28;20031;-79
2021/12/05 13:39:42;;;;;;;;;;;;;;;5.05;94.75;100360.94;5025150;28;20092;-79
2021/12/05 13:42:16;;;;;;;20.30;11.15;;;;;;;5.06;94.79;100357.44;5054998;28;19904;-79
2021/12/05 13:45:00;;;;;;;30.70;12.98;;;;;;;5.07;94.83;100362.59;5035058;28;20029;-79
2021/12/05 13:47:52;;;;;;;28.30;13.55;;;;;;;5.07;95.05;100369.56;5047563;28;20247;-79
2021/12/05 13:50:23;;;;;;;26.98;13.63;;;;;;;5.06;95.02;100373.91;5053801;28;20273;-79
2021/12/05 13:52:57;;;;;;;27.13;13.27;;;;;;;5.07;94.91;100375.59;5053960;28;20037;-79
2021/12/05 13:55:46;;;;;;;30.02;14.85;;;;;;;5.07;95.04;100374.75;5035462;28;20035;-79
2021/12/05 13:58:38;;;;;;;27.70;14.60;;;;;;;5.07;94.98;100375.59;5038265;28;20072;-79
2021/12/05 14:01:05;;;;;;;31.58;14.85;;;;;;;5.09;95.05;100385.94;5053438;28;20120;-79
2021/12/05 14:03:47;;;;;;;26.95;13.27;;;;;;;5.10;95.09;100396.28;5037407;28;20059;-79
2021/12/05 14:06:27;;;;;;;31.40;14.88;;;;;;;5.11;94.98;100394.53;5037386;28;20032;-79
2021/12/05 14:08:56;;;;;;;28.77;14.80;;;;;;;5.11;95.24;100400.59;5038308;28;20028;-79
2021/12/05 14:11:22;;;;;;;33.95;15.73;;;;;;;5.12;95.04;100399.69;5024421;28;20097;-78
2021/12/05 14:13:48;;;;;;;28.73;15.15;;;;;;;5.13;95.17;100414.38;5024843;28;20029;-78
2021/12/05 14:16:13;;;;;;;33.00;15.15;;;;;;;5.14;95.10;100410.88;5039239;28;20075;-80
2021/12/05 14:18:39;;;;;;;37.70;15.88;;;;;;;5.15;95.14;100425.56;5024875;28;20419;-80
2021/12/05 14:21:16;;;;;;;28.38;14.60;;;;;;;5.14;94.99;100423.00;5013632;28;20040;-80
2021/12/05 14:23:57;;;;;;;31.23;14.75;;;;;;;5.12;94.94;100433.44;5002611;28;20017;-80
2021/12/05 14:26:27;;;;;;;29.08;14.25;;;;;;;5.14;94.68;100441.19;5008972;28;20027;-80
2021/12/05 14:28:56;;;;;;;30.15;15.20;;;;;;;5.14;94.78;100449.81;5024489;28;20068;-79
2021/12/05 14:31:30;;;;;;;35.45;14.88;;;;;;;5.11;94.67;100447.31;5024329;28;20033;-79
2021/12/05 14:33:56;;;;;;;33.30;14.75;;;;;;;5.12;94.47;100461.16;5024842;28;20108;-79
2021/12/05 14:36:29;;;;;;;33.83;16.05;;;;;;;5.12;94.64;100467.19;5041468;28;20075;-79
2021/12/05 14:39:15;;;;;;;30.45;14.57;;;;;;;5.10;94.54;100466.38;5041317;28;20224;-79
2021/12/05 14:41:42;;;;;;;40.47;15.65;;;;;;;5.10;94.65;100474.16;5036420;28;20210;-79
2021/12/05 14:44:07;;;;;;;37.97;16.98;;;;;;;5.08;94.66;100478.53;5022907;28;20079;-79
2021/12/05 14:46:32;;;;;;;43.88;19.00;;;;;;;5.08;94.55;100481.13;5022941;28;20333;-79
2021/12/05 14:49:01;;;;;;;42.55;18.20;;;;;;;5.06;94.43;100488.09;5024954;28;20033;-79
2021/12/05 14:51:37;;;;;;;;;;;;;;;5.05;94.59;100490.72;5026034;28;20040;-79
2021/12/05 14:54:03;;;;;;;36.85;18.27;;;;;;;5.04;94.55;100497.66;5036585;28;19924;-79
2021/12/05 14:56:29;;;;;;;46.10;20.08;;;;;;;5.04;94.69;100505.47;5023801;28;20248;-79
2021/12/05 14:59:15;;;;;;;41.08;18.52;;;;;;;5.01;94.60;100518.50;5058814;28;20059;-79
2021/12/05 15:01:43;;;;;;;40.65;18.80;;;;;;;5.02;94.73;100519.34;5039277;28;20264;-79
2021/12/05 15:04:10;;;;;;;39.35;19.13;;;;;;;5.02;94.80;100533.19;5040768;28;20028;-79
2021/12/05 15:06:42;;;;;;;41.40;19.58;;;;;;;5.00;94.87;100537.53;5039844;28;20037;-79
2021/12/05 15:09:19;;;;;;;42.17;19.75;;;;;;;4.99;94.95;100546.22;5039600;28;20066;-79
2021/12/05 15:12:02;;;;;;;40.78;19.77;;;;;;;4.99;94.90;100548.81;5040393;28;20279;-79
2021/12/05 15:14:27;;;;;;;35.58;18.63;;;;;;;4.98;94.60;100558.38;5039431;28;20377;-79
2021/12/05 15:17:04;;;;;;;40.58;20.15;;;;;;;4.98;94.72;100562.69;5057453;28;20074;-79
2021/12/05 15:19:30;;;;;;;47.10;21.70;;;;;;;4.97;94.84;100569.63;5024592;28;20194;-79
2021/12/05 15:21:56;;;;;;;44.80;20.85;;;;;;;4.97;94.89;100572.22;5022908;28;20110;-80
2021/12/05 15:24:23;;;;;;;46.88;22.50;;;;;;;4.96;94.77;100580.03;5023488;28;20044;-81
2021/12/05 15:26:49;;;;;;;39.90;20.17;;;;;;;4.94;94.62;100589.59;5024879;28;20040;-80
2021/12/05 15:29:14;;;;;;;44.53;21.27;;;;;;;4.95;94.67;100593.91;5023370;28;20153;-80
2021/12/05 15:31:41;;;;;;;46.33;21.75;;;;;;;4.94;94.74;100594.78;5039744;28;20418;-80
2021/12/05 15:34:28;;;;;;;40.10;21.42;;;;;;;4.93;94.78;100599.13;5004174;28;20060;-80
2021/12/05 15:36:54;;;;;;;47.83;21.25;;;;;;;4.93;94.91;100609.50;5052834;28;20190;-80
2021/12/05 15:39:26;;;;;;;47.75;22.58;;;;;;;4.92;94.63;100610.38;5023807;28;20036;-80
2021/12/05 15:41:55;;;;;;;46.20;22.17;;;;;;;4.92;94.91;100612.13;5031657;28;20048;-80
2021/12/05 15:44:29;;;;;;;42.78;21.13;;;;;;;4.91;94.85;100613.00;5024024;28;20374;-80
2021/12/05 15:47:07;;;;;;;40.08;20.55;;;;;;;4.91;94.72;100613.00;5040093;28;20104;-80
2021/12/05 15:49:43;;;;;;;40.72;20.23;;;;;;;4.89;94.80;100620.81;5004087;28;20264;-80
2021/12/05 15:52:09;;;;;;;44.42;21.88;;;;;;;4.89;94.69;100620.81;5007220;28;20094;-80
2021/12/05 15:54:34;;;;;;;44.42;21.15;;;;;;;4.89;94.76;100628.59;5039503;28;20371;-80
2021/12/05 15:57:34;;;;;;;42.58;20.52;;;;;;;4.89;94.75;100641.56;5039825;28;20045;-81
2021/12/05 16:00:00;;;;;;;47.03;23.20;;;;;;;4.90;94.77;100658.88;5025574;28;20051;-81
2021/12/05 16:02:26;;;;;;;45.20;21.50;;;;;;;4.93;94.84;100652.75;5023386;28;20040;-81
2021/12/05 16:04:51;;;;;;;44.00;21.13;;;;;;;4.95;94.98;100661.38;5024217;28;20071;-81
2021/12/05 16:07:17;;;;;;;49.75;21.70;;;;;;;4.95;94.99;100656.19;5023793;28;20029;-80
2021/12/05 16:09:43;;;;;;;45.03;21.05;;;;;;;4.94;94.94;100665.69;5024098;28;20040;-81
2021/12/05 16:12:14;;;;;;;40.22;20.25;;;;;;;4.96;95.05;100663.06;5057001;28;20033;-80
2021/12/05 16:14:44;;;;;;;41.03;20.98;;;;;;;5.00;95.15;100669.91;5037561;28;20064;-81
2021/12/05 16:17:21;;;;;;;38.95;19.33;;;;;;;5.00;95.24;100669.91;5026212;28;20036;-81
2021/12/05 16:20:10;;;;;;;37.92;19.30;;;;;;;5.00;95.30;100685.47;5040671;28;20037;-80
2021/12/05 16:22:55;;;;;;;33.10;17.92;;;;;;;4.99;94.98;100686.38;5040164;28;20037;-81
2021/12/05 16:25:21;;;;;;;37.20;19.52;;;;;;;4.99;94.91;100686.38;5038447;28;20035;-81
2021/12/05 16:27:50;;;;;;;34.80;18.98;;;;;;;5.02;95.05;100693.25;5039312;28;20040;-81
2021/12/05 16:30:27;;;;;;;35.25;19.15;;;;;;;5.04;95.08;100701.84;4999744;28;20036;-81
2021/12/05 16:32:52;;;;;;;35.28;18.45;;;;;;;5.05;95.15;100696.63;5035222;28;20061;-81
2021/12/05 16:35:34;;;;;;;32.10;18.52;;;;;;;5.05;95.13;100698.38;5020230;28;20041;-81
2021/12/05 16:38:01;;;;;;;25.92;16.08;;;;;;;5.07;95.12;100689.66;5018214;28;20080;-81
2021/12/05 16:40:26;;;;;;;25.70;15.55;;;;;;;5.04;94.99;100702.72;5005555;28;20237;-80
2021/12/05 16:43:08;;;;;;;28.42;14.90;;;;;;;5.00;94.46;100717.50;5038908;28;20040;-81
2021/12/05 16:45:36;;;;;;;27.35;15.38;;;;;;;4.97;94.26;100717.56;5001813;28;20244;-80
2021/12/05 16:48:02;;;;;;;22.00;14.75;;;;;;;4.98;94.32;100715.81;5035893;28;20055;-80
2021/12/05 16:50:28;;;;;;;22.80;14.23;;;;;;;4.99;94.48;100731.34;5038916;28;20111;-80
2021/12/05 16:52:54;;;;;;;25.85;14.95;;;;;;;4.98;94.39;100736.56;5038786;28;20364;-80
2021/12/05 16:55:29;;;;;;;23.38;13.95;;;;;;;4.96;94.34;100746.13;5066349;28;20396;-80
2021/12/05 16:58:13;;;;;;;20.33;13.07;;;;;;;4.96;94.27;100759.94;5045400;28;20033;-80
2021/12/05 17:00:40;;;;;;;22.30;13.52;;;;;;;4.98;94.39;100762.53;5043828;28;20097;-80
2021/12/05 17:03:07;;;;;;;20.48;13.35;;;;;;;4.95;94.48;100762.59;5015961;28;20060;-80